Pagina principale
METAR-TAF:

METAR-TAF

Aeroporti :

Beverly, Massachusetts, Stati Uniti

latitudine: 42-35-01N, longitudine: 070-54-59W, altezza: 33 m

Osservazione

Il bollettino è stato emesso 50 minuti fa, alle 09:53 UTC
Vento 3 kt da nord/nord-ovest
Temperature 7°C
Umidità 93%
Pressione 1024 hPa
Visibilità: 16.1 km
Cielo sereno

METAR: KBVY 230953Z AUTO 33003KT 10SM CLR 07/06 A3024 RMK AO2 SLP236 T00720061

Ora: 06:43 (10:43 UTC)


TAF: mancante

Osservazioni e previsioni meteorologiche di più di 4000 aeroporti (messaggi METAR e TAF).

Le stazioni disponibili sono rappresentate dai dischi gialli e rossi sulla carta.

Puntare il mouse per vedere il nome della stazione.

Clicca sopra per visualizzare le osservazioni e previsioni meteorologiche.

Per cambiare la mappa : fare clic sui pulsanti verdi con una croce nera per ingrandire, il pulsante verde con un trattino per diminuire, o sulla freccia verde per le mappe adiacenti.


METAR-TAF: